IBE0410 LEBL-LEMD
Flight info
| Callsign | IBE0410 |
|---|---|
| Flight time | 1h 7m |
| Altitude | 28000 |
| Route | SENIA Z596 NEXAS N975 ADUXO |
| Aircraft | B738/M-SDE2E3FGHIRWXY/LB1 |
Departure
| Time | 2026-05-06 05:54 |
|---|---|
| Airport | Josep Tarradellas Barcelona-El Prat Airport (LEBL) |
Arrival
| Time | 2026-05-06 07:02 |
|---|---|
| Airport | Adolfo Suárez Madrid–Barajas Airport (LEMD) |
| Time | Latitude | Longitude | Altitude | Speed | Heading |
|---|---|---|---|---|---|
| 2026-05-06 05:37 | 41.28682 | 2.07691 | 14 ft | 0 kts | 322° |
| 2026-05-06 05:47 | 41.28677 | 2.07697 | 14 ft | 2 kts | 322° |
| 2026-05-06 05:47 | 41.28668 | 2.07706 | 14 ft | 0 kts | 322° |
| 2026-05-06 05:47 | 41.28658 | 2.07718 | 13 ft | 2 kts | 306° |
| 2026-05-06 05:47 | 41.28651 | 2.07735 | 13 ft | 2 kts | 289° |
| 2026-05-06 05:48 | 41.28648 | 2.07755 | 13 ft | 2 kts | 272° |
| 2026-05-06 05:48 | 41.28649 | 2.07775 | 13 ft | 2 kts | 254° |
| 2026-05-06 05:48 | 41.28651 | 2.07784 | 12 ft | 1 kts | 244° |
| 2026-05-06 05:48 | 41.28653 | 2.07790 | 12 ft | 0 kts | 245° |
| 2026-05-06 05:50 | 41.28650 | 2.07781 | 12 ft | 3 kts | 244° |
| 2026-05-06 05:50 | 41.28640 | 2.07761 | 13 ft | 3 kts | 229° |
| 2026-05-06 05:51 | 41.28592 | 2.07717 | 14 ft | 9 kts | 187° |
| 2026-05-06 05:51 | 41.28529 | 2.07713 | 14 ft | 9 kts | 212° |
| 2026-05-06 05:51 | 41.28488 | 2.07634 | 15 ft | 14 kts | 244° |
| 2026-05-06 05:51 | 41.28420 | 2.07561 | 16 ft | 12 kts | 201° |
| 2026-05-06 05:52 | 41.28397 | 2.07550 | 16 ft | 0 kts | 201° |
| 2026-05-06 05:53 | 41.28397 | 2.07549 | 16 ft | 0 kts | 201° |
| 2026-05-06 05:53 | 41.28357 | 2.07529 | 17 ft | 9 kts | 204° |
| 2026-05-06 05:53 | 41.28311 | 2.07474 | 18 ft | 9 kts | 235° |
| 2026-05-06 05:53 | 41.28252 | 2.07450 | 19 ft | 11 kts | 115° |
| 2026-05-06 05:54 | 41.28272 | 2.07556 | 18 ft | 15 kts | 66° |
| 2026-05-06 05:54 | 41.28405 | 2.07930 | 13 ft | 91 kts | 65° |
| 2026-05-06 05:54 | 41.28794 | 2.09075 | 85 ft | 170 kts | 66° |
| 2026-05-06 05:54 | 41.29188 | 2.10537 | 1090 ft | 171 kts | 72° |
| 2026-05-06 05:55 | 41.29348 | 2.12017 | 1986 ft | 172 kts | 92° |
| 2026-05-06 05:55 | 41.29097 | 2.13647 | 2568 ft | 187 kts | 101° |
| 2026-05-06 05:55 | 41.28851 | 2.15428 | 3084 ft | 208 kts | 96° |
| 2026-05-06 05:55 | 41.28666 | 2.17400 | 3769 ft | 223 kts | 95° |
| 2026-05-06 05:56 | 41.28493 | 2.19470 | 4673 ft | 226 kts | 95° |
| 2026-05-06 05:56 | 41.28330 | 2.21534 | 5516 ft | 232 kts | 96° |
| 2026-05-06 05:56 | 41.28160 | 2.23654 | 6337 ft | 238 kts | 96° |
| 2026-05-06 05:56 | 41.27980 | 2.25850 | 7167 ft | 243 kts | 96° |
| 2026-05-06 05:57 | 41.27802 | 2.28016 | 7838 ft | 233 kts | 97° |
| 2026-05-06 05:57 | 41.27590 | 2.30272 | 8094 ft | 256 kts | 102° |
| 2026-05-06 05:57 | 41.27072 | 2.32492 | 8924 ft | 258 kts | 115° |
| 2026-05-06 05:57 | 41.26286 | 2.34671 | 9499 ft | 272 kts | 120° |
| 2026-05-06 05:58 | 41.25380 | 2.36975 | 10079 ft | 288 kts | 120° |
| 2026-05-06 05:58 | 41.24453 | 2.39381 | 10609 ft | 304 kts | 119° |
| 2026-05-06 05:58 | 41.23485 | 2.41974 | 11268 ft | 317 kts | 118° |
| 2026-05-06 05:58 | 41.22524 | 2.44603 | 12037 ft | 324 kts | 118° |
| 2026-05-06 05:59 | 41.21539 | 2.47314 | 12837 ft | 329 kts | 117° |
| 2026-05-06 05:59 | 41.20548 | 2.50046 | 13666 ft | 333 kts | 117° |
| 2026-05-06 05:59 | 41.19538 | 2.52823 | 14412 ft | 339 kts | 118° |
| 2026-05-06 05:59 | 41.18504 | 2.55660 | 15137 ft | 346 kts | 118° |
| 2026-05-06 06:00 | 41.17446 | 2.58552 | 15848 ft | 351 kts | 119° |
| 2026-05-06 06:00 | 41.16334 | 2.61393 | 16561 ft | 354 kts | 125° |
| 2026-05-06 06:00 | 41.14817 | 2.63943 | 17194 ft | 350 kts | 145° |
| 2026-05-06 06:00 | 41.12801 | 2.65606 | 17945 ft | 336 kts | 166° |
| 2026-05-06 06:01 | 41.10590 | 2.66362 | 18622 ft | 327 kts | 181° |
| 2026-05-06 06:01 | 41.08371 | 2.66494 | 19368 ft | 322 kts | 189° |
| 2026-05-06 06:01 | 41.06150 | 2.66352 | 20094 ft | 321 kts | 192° |
| 2026-05-06 06:01 | 41.03933 | 2.66033 | 20722 ft | 321 kts | 198° |
| 2026-05-06 06:02 | 41.01799 | 2.65285 | 21408 ft | 316 kts | 206° |
| 2026-05-06 06:02 | 40.99792 | 2.64149 | 22073 ft | 314 kts | 213° |
| 2026-05-06 06:02 | 40.97904 | 2.62714 | 22690 ft | 314 kts | 218° |
| 2026-05-06 06:02 | 40.96138 | 2.61004 | 23275 ft | 314 kts | 225° |
| 2026-05-06 06:03 | 40.94608 | 2.58973 | 23857 ft | 314 kts | 232° |
| 2026-05-06 06:03 | 40.93309 | 2.56652 | 24514 ft | 313 kts | 238° |
| 2026-05-06 06:03 | 40.92229 | 2.54182 | 24998 ft | 317 kts | 244° |
| 2026-05-06 06:03 | 40.91356 | 2.51478 | 25587 ft | 319 kts | 249° |
| 2026-05-06 06:04 | 40.90655 | 2.48716 | 26069 ft | 323 kts | 251° |
| 2026-05-06 06:04 | 40.90011 | 2.45871 | 26584 ft | 325 kts | 252° |
| 2026-05-06 06:04 | 40.89376 | 2.43002 | 27102 ft | 327 kts | 252° |
| 2026-05-06 06:04 | 40.88725 | 2.40095 | 27578 ft | 330 kts | 252° |
| 2026-05-06 06:05 | 40.88063 | 2.37197 | 27931 ft | 335 kts | 251° |
| 2026-05-06 06:05 | 40.87383 | 2.34257 | 27929 ft | 334 kts | 251° |
| 2026-05-06 06:05 | 40.86699 | 2.31322 | 27934 ft | 331 kts | 251° |
| 2026-05-06 06:05 | 40.86019 | 2.28425 | 27928 ft | 331 kts | 251° |
| 2026-05-06 06:06 | 40.85334 | 2.25517 | 27931 ft | 332 kts | 251° |
| 2026-05-06 06:06 | 40.84649 | 2.22607 | 27928 ft | 333 kts | 251° |
| 2026-05-06 06:06 | 40.84043 | 2.19649 | 27932 ft | 333 kts | 255° |
| 2026-05-06 06:06 | 40.83697 | 2.16624 | 27933 ft | 335 kts | 262° |
| 2026-05-06 06:07 | 40.83621 | 2.13548 | 27924 ft | 338 kts | 266° |
| 2026-05-06 06:07 | 40.83678 | 2.10466 | 27930 ft | 340 kts | 268° |
| 2026-05-06 06:07 | 40.83789 | 2.07321 | 27924 ft | 340 kts | 269° |
| 2026-05-06 06:07 | 40.83908 | 2.04229 | 27930 ft | 339 kts | 268° |
| 2026-05-06 06:08 | 40.84021 | 2.01122 | 27928 ft | 339 kts | 268° |
| 2026-05-06 06:08 | 40.84124 | 1.98013 | 27926 ft | 338 kts | 268° |
| 2026-05-06 06:08 | 40.84218 | 1.94945 | 27928 ft | 339 kts | 268° |
| 2026-05-06 06:08 | 40.84309 | 1.91810 | 27927 ft | 338 kts | 268° |
| 2026-05-06 06:09 | 40.84394 | 1.88753 | 27922 ft | 337 kts | 268° |
| 2026-05-06 06:09 | 40.84477 | 1.85649 | 27925 ft | 337 kts | 268° |
| 2026-05-06 06:09 | 40.84558 | 1.82548 | 27926 ft | 338 kts | 268° |
| 2026-05-06 06:09 | 40.84638 | 1.79462 | 27927 ft | 339 kts | 268° |
| 2026-05-06 06:10 | 40.84717 | 1.76363 | 27926 ft | 337 kts | 268° |
| 2026-05-06 06:10 | 40.84796 | 1.73261 | 27925 ft | 337 kts | 268° |
| 2026-05-06 06:10 | 40.84873 | 1.70191 | 27926 ft | 337 kts | 268° |
| 2026-05-06 06:10 | 40.84950 | 1.67113 | 27929 ft | 337 kts | 268° |
| 2026-05-06 06:11 | 40.85026 | 1.64031 | 27929 ft | 337 kts | 268° |
| 2026-05-06 06:11 | 40.85102 | 1.60940 | 27928 ft | 337 kts | 268° |
| 2026-05-06 06:11 | 40.85176 | 1.57854 | 27930 ft | 337 kts | 268° |
| 2026-05-06 06:11 | 40.85248 | 1.54789 | 27930 ft | 336 kts | 268° |
| 2026-05-06 06:12 | 40.85321 | 1.51694 | 27930 ft | 337 kts | 268° |
| 2026-05-06 06:12 | 40.85393 | 1.48600 | 27929 ft | 337 kts | 268° |
| 2026-05-06 06:12 | 40.85464 | 1.45534 | 27931 ft | 337 kts | 268° |
| 2026-05-06 06:12 | 40.85534 | 1.42447 | 27933 ft | 337 kts | 268° |
| 2026-05-06 06:13 | 40.85603 | 1.39363 | 27941 ft | 337 kts | 268° |
| 2026-05-06 06:13 | 40.85671 | 1.36273 | 27942 ft | 336 kts | 268° |
| 2026-05-06 06:13 | 40.85738 | 1.33196 | 27947 ft | 335 kts | 268° |
| 2026-05-06 06:13 | 40.85804 | 1.30132 | 27948 ft | 335 kts | 268° |
| 2026-05-06 06:14 | 40.85870 | 1.27070 | 27944 ft | 335 kts | 268° |
| 2026-05-06 06:14 | 40.85934 | 1.24004 | 27946 ft | 334 kts | 268° |
| 2026-05-06 06:14 | 40.85998 | 1.20955 | 27944 ft | 335 kts | 268° |
| 2026-05-06 06:14 | 40.86061 | 1.17877 | 27941 ft | 335 kts | 268° |
| 2026-05-06 06:15 | 40.86122 | 1.14916 | 27936 ft | 334 kts | 268° |
| 2026-05-06 06:15 | 40.86183 | 1.11870 | 27932 ft | 333 kts | 268° |
| 2026-05-06 06:15 | 40.86243 | 1.08828 | 27925 ft | 334 kts | 268° |
| 2026-05-06 06:15 | 40.86303 | 1.05767 | 27927 ft | 334 kts | 268° |
| 2026-05-06 06:16 | 40.86362 | 1.02691 | 27929 ft | 334 kts | 268° |
| 2026-05-06 06:16 | 40.86419 | 0.99663 | 27927 ft | 333 kts | 268° |
| 2026-05-06 06:16 | 40.86476 | 0.96604 | 27927 ft | 334 kts | 268° |
| 2026-05-06 06:16 | 40.86532 | 0.93552 | 27926 ft | 333 kts | 268° |
| 2026-05-06 06:17 | 40.86588 | 0.90493 | 27928 ft | 334 kts | 268° |
| 2026-05-06 06:17 | 40.86643 | 0.87452 | 27930 ft | 334 kts | 268° |
| 2026-05-06 06:17 | 40.86697 | 0.84383 | 27925 ft | 332 kts | 268° |
| 2026-05-06 06:17 | 40.86750 | 0.81349 | 27934 ft | 333 kts | 268° |
| 2026-05-06 06:18 | 40.86802 | 0.78283 | 27931 ft | 333 kts | 268° |
| 2026-05-06 06:18 | 40.86854 | 0.75264 | 27931 ft | 332 kts | 268° |
| 2026-05-06 06:18 | 40.86900 | 0.72228 | 27930 ft | 332 kts | 268° |
| 2026-05-06 06:18 | 40.86929 | 0.69163 | 27932 ft | 332 kts | 267° |
| 2026-05-06 06:19 | 40.86949 | 0.66145 | 27932 ft | 332 kts | 268° |
| 2026-05-06 06:19 | 40.86967 | 0.63087 | 27935 ft | 332 kts | 267° |
| 2026-05-06 06:19 | 40.86985 | 0.60079 | 27934 ft | 332 kts | 267° |
| 2026-05-06 06:19 | 40.87003 | 0.57032 | 27938 ft | 333 kts | 268° |
| 2026-05-06 06:20 | 40.87022 | 0.53962 | 27938 ft | 332 kts | 268° |
| 2026-05-06 06:20 | 40.87040 | 0.50936 | 27939 ft | 332 kts | 268° |
| 2026-05-06 06:20 | 40.87058 | 0.47883 | 27940 ft | 332 kts | 267° |
| 2026-05-06 06:20 | 40.87075 | 0.44823 | 27943 ft | 333 kts | 268° |
| 2026-05-06 06:21 | 40.87091 | 0.41748 | 27944 ft | 333 kts | 267° |
| 2026-05-06 06:21 | 40.87107 | 0.38703 | 27944 ft | 333 kts | 268° |
| 2026-05-06 06:21 | 40.87123 | 0.35677 | 27948 ft | 332 kts | 268° |
| 2026-05-06 06:21 | 40.87137 | 0.32628 | 27945 ft | 333 kts | 267° |
| 2026-05-06 06:22 | 40.87151 | 0.29555 | 27948 ft | 332 kts | 267° |
| 2026-05-06 06:22 | 40.87165 | 0.26543 | 27949 ft | 332 kts | 267° |
| 2026-05-06 06:22 | 40.87177 | 0.23495 | 27950 ft | 332 kts | 267° |
| 2026-05-06 06:22 | 40.87188 | 0.20432 | 27947 ft | 332 kts | 267° |
| 2026-05-06 06:23 | 40.87197 | 0.17395 | 27947 ft | 332 kts | 267° |
| 2026-05-06 06:23 | 40.87207 | 0.14359 | 27951 ft | 332 kts | 267° |
| 2026-05-06 06:23 | 40.87215 | 0.11295 | 27953 ft | 331 kts | 267° |
| 2026-05-06 06:23 | 40.87224 | 0.08288 | 27951 ft | 331 kts | 267° |
| 2026-05-06 06:24 | 40.87231 | 0.05226 | 27956 ft | 331 kts | 267° |
| 2026-05-06 06:24 | 40.87238 | 0.02225 | 27952 ft | 330 kts | 267° |
| 2026-05-06 06:24 | 40.87244 | -0.00822 | 27953 ft | 330 kts | 267° |
| 2026-05-06 06:24 | 40.87248 | -0.03820 | 27955 ft | 331 kts | 267° |
| 2026-05-06 06:25 | 40.87252 | -0.06853 | 27957 ft | 330 kts | 267° |
| 2026-05-06 06:25 | 40.87255 | -0.09887 | 27957 ft | 329 kts | 267° |
| 2026-05-06 06:25 | 40.87259 | -0.15948 | 27957 ft | 330 kts | 267° |
| 2026-05-06 06:26 | 40.87259 | -0.18941 | 27957 ft | 331 kts | 267° |
| 2026-05-06 06:26 | 40.87259 | -0.21996 | 27960 ft | 332 kts | 267° |
| 2026-05-06 06:26 | 40.87258 | -0.25021 | 27956 ft | 331 kts | 268° |
| 2026-05-06 06:26 | 40.87258 | -0.28048 | 27961 ft | 331 kts | 267° |
| 2026-05-06 06:27 | 40.87256 | -0.31113 | 27960 ft | 331 kts | 267° |
| 2026-05-06 06:27 | 40.87253 | -0.34155 | 27961 ft | 332 kts | 268° |
| 2026-05-06 06:27 | 40.87249 | -0.37181 | 27957 ft | 331 kts | 268° |
| 2026-05-06 06:27 | 40.87245 | -0.40210 | 27958 ft | 331 kts | 267° |
| 2026-05-06 06:28 | 40.87239 | -0.43254 | 27957 ft | 331 kts | 268° |
| 2026-05-06 06:28 | 40.87233 | -0.46288 | 27958 ft | 331 kts | 268° |
| 2026-05-06 06:28 | 40.87226 | -0.49335 | 27960 ft | 331 kts | 268° |
| 2026-05-06 06:28 | 40.87217 | -0.52322 | 27956 ft | 330 kts | 268° |
| 2026-05-06 06:29 | 40.87208 | -0.55372 | 27957 ft | 332 kts | 268° |
| 2026-05-06 06:29 | 40.87198 | -0.58414 | 27958 ft | 332 kts | 268° |
| 2026-05-06 06:29 | 40.87188 | -0.61440 | 27958 ft | 332 kts | 268° |
| 2026-05-06 06:29 | 40.87178 | -0.64489 | 27957 ft | 331 kts | 268° |
| 2026-05-06 06:30 | 40.87165 | -0.67540 | 27959 ft | 332 kts | 267° |
| 2026-05-06 06:30 | 40.87153 | -0.70592 | 27958 ft | 331 kts | 267° |
| 2026-05-06 06:30 | 40.87139 | -0.73622 | 27958 ft | 332 kts | 267° |
| 2026-05-06 06:30 | 40.87081 | -0.76660 | 27957 ft | 331 kts | 265° |
| 2026-05-06 06:31 | 40.86812 | -0.79673 | 27957 ft | 330 kts | 258° |
| 2026-05-06 06:31 | 40.86245 | -0.82594 | 27954 ft | 331 kts | 253° |
| 2026-05-06 06:31 | 40.85506 | -0.85457 | 27959 ft | 332 kts | 251° |
| 2026-05-06 06:31 | 40.84703 | -0.88302 | 27959 ft | 330 kts | 250° |
| 2026-05-06 06:32 | 40.83887 | -0.91143 | 27956 ft | 331 kts | 250° |
| 2026-05-06 06:32 | 40.83070 | -0.94004 | 27961 ft | 331 kts | 250° |
| 2026-05-06 06:32 | 40.82273 | -0.96818 | 27959 ft | 331 kts | 250° |
| 2026-05-06 06:32 | 40.81470 | -0.99675 | 27958 ft | 331 kts | 250° |
| 2026-05-06 06:33 | 40.80679 | -1.02508 | 27963 ft | 332 kts | 251° |
| 2026-05-06 06:33 | 40.79875 | -1.05387 | 27959 ft | 331 kts | 251° |
| 2026-05-06 06:33 | 40.79080 | -1.08238 | 27963 ft | 331 kts | 251° |
| 2026-05-06 06:33 | 40.78285 | -1.11089 | 27960 ft | 331 kts | 251° |
| 2026-05-06 06:34 | 40.77492 | -1.13928 | 27967 ft | 332 kts | 251° |
| 2026-05-06 06:34 | 40.76698 | -1.16769 | 27966 ft | 332 kts | 251° |
| 2026-05-06 06:34 | 40.75889 | -1.19662 | 27966 ft | 332 kts | 251° |
| 2026-05-06 06:34 | 40.75089 | -1.22519 | 27967 ft | 333 kts | 251° |
| 2026-05-06 06:35 | 40.74290 | -1.25369 | 27969 ft | 333 kts | 251° |
| 2026-05-06 06:35 | 40.73488 | -1.28226 | 27970 ft | 333 kts | 251° |
| 2026-05-06 06:35 | 40.72678 | -1.31114 | 27967 ft | 332 kts | 251° |
| 2026-05-06 06:35 | 40.71885 | -1.33940 | 27973 ft | 333 kts | 251° |
| 2026-05-06 06:36 | 40.71070 | -1.36837 | 27977 ft | 334 kts | 251° |
| 2026-05-06 06:36 | 40.70273 | -1.39670 | 27978 ft | 334 kts | 251° |
| 2026-05-06 06:36 | 40.69457 | -1.42563 | 27977 ft | 333 kts | 251° |
| 2026-05-06 06:36 | 40.68655 | -1.45406 | 27979 ft | 334 kts | 251° |
| 2026-05-06 06:37 | 40.67843 | -1.48280 | 27980 ft | 335 kts | 251° |
| 2026-05-06 06:37 | 40.67036 | -1.51136 | 27980 ft | 335 kts | 251° |
| 2026-05-06 06:37 | 40.66218 | -1.54027 | 27982 ft | 336 kts | 251° |
| 2026-05-06 06:37 | 40.65402 | -1.56905 | 27977 ft | 335 kts | 251° |
| 2026-05-06 06:38 | 40.64584 | -1.59792 | 27983 ft | 345 kts | 251° |
| 2026-05-06 06:38 | 40.63723 | -1.62828 | 27977 ft | 358 kts | 251° |
| 2026-05-06 06:38 | 40.62838 | -1.65942 | 27840 ft | 368 kts | 250° |
| 2026-05-06 06:38 | 40.61937 | -1.69107 | 27436 ft | 365 kts | 250° |
| 2026-05-06 06:39 | 40.61056 | -1.72188 | 27107 ft | 356 kts | 250° |
| 2026-05-06 06:39 | 40.60200 | -1.75181 | 26661 ft | 351 kts | 250° |
| 2026-05-06 06:39 | 40.59349 | -1.78154 | 26133 ft | 348 kts | 250° |
| 2026-05-06 06:39 | 40.58498 | -1.81129 | 25591 ft | 346 kts | 250° |
| 2026-05-06 06:40 | 40.57649 | -1.84094 | 25044 ft | 343 kts | 250° |
| 2026-05-06 06:40 | 40.56821 | -1.86983 | 24504 ft | 341 kts | 250° |
| 2026-05-06 06:40 | 40.55984 | -1.89901 | 23967 ft | 338 kts | 250° |
| 2026-05-06 06:40 | 40.55160 | -1.92764 | 23445 ft | 336 kts | 250° |
| 2026-05-06 06:41 | 40.54339 | -1.95619 | 22922 ft | 334 kts | 250° |
| 2026-05-06 06:41 | 40.53525 | -1.98448 | 22394 ft | 332 kts | 251° |
| 2026-05-06 06:41 | 40.52713 | -2.01272 | 21876 ft | 330 kts | 251° |
| 2026-05-06 06:41 | 40.51897 | -2.04083 | 21362 ft | 328 kts | 250° |
| 2026-05-06 06:42 | 40.50988 | -2.06806 | 20985 ft | 328 kts | 245° |
| 2026-05-06 06:42 | 40.49869 | -2.09484 | 20964 ft | 343 kts | 242° |
| 2026-05-06 06:42 | 40.48636 | -2.12177 | 20960 ft | 347 kts | 241° |
| 2026-05-06 06:42 | 40.47367 | -2.14856 | 20849 ft | 348 kts | 240° |
| 2026-05-06 06:43 | 40.46085 | -2.17542 | 20543 ft | 343 kts | 240° |
| 2026-05-06 06:43 | 40.44836 | -2.20166 | 20105 ft | 338 kts | 241° |
| 2026-05-06 06:43 | 40.43603 | -2.22764 | 19603 ft | 335 kts | 241° |
| 2026-05-06 06:43 | 40.42378 | -2.25361 | 19082 ft | 333 kts | 241° |
| 2026-05-06 06:44 | 40.41168 | -2.27932 | 18557 ft | 330 kts | 241° |
| 2026-05-06 06:44 | 40.39970 | -2.30481 | 18051 ft | 328 kts | 241° |
| 2026-05-06 06:44 | 40.38780 | -2.33017 | 17536 ft | 326 kts | 241° |
| 2026-05-06 06:44 | 40.37596 | -2.35538 | 17016 ft | 325 kts | 241° |
| 2026-05-06 06:45 | 40.36420 | -2.38038 | 16503 ft | 323 kts | 241° |
| 2026-05-06 06:45 | 40.35244 | -2.40539 | 15994 ft | 321 kts | 241° |
| 2026-05-06 06:45 | 40.34071 | -2.43026 | 15490 ft | 320 kts | 241° |
| 2026-05-06 06:45 | 40.32909 | -2.45489 | 14988 ft | 319 kts | 241° |
| 2026-05-06 06:46 | 40.31766 | -2.47908 | 14718 ft | 310 kts | 240° |
| 2026-05-06 06:46 | 40.30650 | -2.50267 | 14555 ft | 298 kts | 241° |
| 2026-05-06 06:46 | 40.29579 | -2.52528 | 14442 ft | 286 kts | 241° |
| 2026-05-06 06:46 | 40.28556 | -2.54691 | 14328 ft | 274 kts | 241° |
| 2026-05-06 06:47 | 40.27573 | -2.56770 | 14214 ft | 263 kts | 241° |
| 2026-05-06 06:47 | 40.26660 | -2.58792 | 14100 ft | 252 kts | 246° |
| 2026-05-06 06:47 | 40.26098 | -2.60883 | 13973 ft | 245 kts | 263° |
| 2026-05-06 06:47 | 40.25983 | -2.63157 | 13976 ft | 254 kts | 271° |
| 2026-05-06 06:48 | 40.25995 | -2.65480 | 13968 ft | 254 kts | 271° |
| 2026-05-06 06:48 | 40.26014 | -2.67767 | 13967 ft | 253 kts | 271° |
| 2026-05-06 06:48 | 40.26022 | -2.70047 | 13818 ft | 248 kts | 271° |
| 2026-05-06 06:48 | 40.26018 | -2.72300 | 13559 ft | 244 kts | 271° |
| 2026-05-06 06:49 | 40.26012 | -2.74519 | 13271 ft | 242 kts | 271° |
| 2026-05-06 06:49 | 40.26004 | -2.76702 | 12981 ft | 240 kts | 271° |
| 2026-05-06 06:49 | 40.25996 | -2.78862 | 12699 ft | 238 kts | 271° |
| 2026-05-06 06:49 | 40.25988 | -2.81033 | 12416 ft | 236 kts | 270° |
| 2026-05-06 06:50 | 40.25980 | -2.83157 | 12140 ft | 235 kts | 271° |
| 2026-05-06 06:50 | 40.25970 | -2.85290 | 11860 ft | 233 kts | 271° |
| 2026-05-06 06:50 | 40.25962 | -2.87390 | 11594 ft | 236 kts | 270° |
| 2026-05-06 06:50 | 40.25952 | -2.89632 | 11298 ft | 250 kts | 270° |
| 2026-05-06 06:51 | 40.25942 | -2.91897 | 11000 ft | 250 kts | 271° |
| 2026-05-06 06:51 | 40.25930 | -2.94150 | 10708 ft | 248 kts | 271° |
| 2026-05-06 06:51 | 40.25919 | -2.96401 | 10422 ft | 246 kts | 271° |
| 2026-05-06 06:51 | 40.25906 | -2.98624 | 10137 ft | 244 kts | 271° |
| 2026-05-06 06:52 | 40.25894 | -3.00814 | 9857 ft | 242 kts | 271° |
| 2026-05-06 06:52 | 40.25882 | -3.03017 | 9575 ft | 240 kts | 271° |
| 2026-05-06 06:52 | 40.25869 | -3.05199 | 9305 ft | 237 kts | 271° |
| 2026-05-06 06:52 | 40.25856 | -3.07295 | 9017 ft | 228 kts | 271° |
| 2026-05-06 06:53 | 40.25843 | -3.09328 | 8761 ft | 218 kts | 271° |
| 2026-05-06 06:53 | 40.25831 | -3.11262 | 8517 ft | 210 kts | 271° |
| 2026-05-06 06:53 | 40.25821 | -3.13132 | 8295 ft | 205 kts | 272° |
| 2026-05-06 06:53 | 40.25947 | -3.14974 | 8048 ft | 202 kts | 281° |
| 2026-05-06 06:54 | 40.26201 | -3.16775 | 7815 ft | 202 kts | 282° |
| 2026-05-06 06:54 | 40.26469 | -3.18595 | 7574 ft | 202 kts | 282° |
| 2026-05-06 06:54 | 40.26716 | -3.20384 | 7338 ft | 200 kts | 281° |
| 2026-05-06 06:54 | 40.26955 | -3.22190 | 7108 ft | 200 kts | 281° |
| 2026-05-06 06:55 | 40.27188 | -3.23963 | 6946 ft | 198 kts | 281° |
| 2026-05-06 06:55 | 40.27422 | -3.25742 | 6744 ft | 199 kts | 281° |
| 2026-05-06 06:55 | 40.27657 | -3.27523 | 6557 ft | 197 kts | 281° |
| 2026-05-06 06:55 | 40.27887 | -3.29278 | 6390 ft | 198 kts | 281° |
| 2026-05-06 06:56 | 40.28122 | -3.31062 | 6222 ft | 198 kts | 281° |
| 2026-05-06 06:56 | 40.28462 | -3.32787 | 6073 ft | 191 kts | 296° |
| 2026-05-06 06:56 | 40.29217 | -3.34155 | 5907 ft | 181 kts | 315° |
| 2026-05-06 06:56 | 40.30067 | -3.35322 | 5755 ft | 175 kts | 314° |
| 2026-05-06 06:57 | 40.30862 | -3.36499 | 5614 ft | 174 kts | 312° |
| 2026-05-06 06:57 | 40.31661 | -3.37724 | 5466 ft | 175 kts | 313° |
| 2026-05-06 06:57 | 40.32548 | -3.38789 | 5324 ft | 174 kts | 325° |
| 2026-05-06 06:57 | 40.33528 | -3.39711 | 5179 ft | 174 kts | 325° |
| 2026-05-06 06:58 | 40.34495 | -3.40664 | 5088 ft | 171 kts | 324° |
| 2026-05-06 06:58 | 40.35446 | -3.41623 | 4916 ft | 175 kts | 324° |
| 2026-05-06 06:58 | 40.36402 | -3.42585 | 4652 ft | 172 kts | 324° |
| 2026-05-06 06:58 | 40.37342 | -3.43530 | 4400 ft | 171 kts | 324° |
| 2026-05-06 06:59 | 40.38288 | -3.44482 | 4159 ft | 172 kts | 324° |
| 2026-05-06 06:59 | 40.39237 | -3.45438 | 3920 ft | 171 kts | 324° |
| 2026-05-06 06:59 | 40.40182 | -3.46390 | 3685 ft | 171 kts | 324° |
| 2026-05-06 06:59 | 40.41116 | -3.47332 | 3504 ft | 169 kts | 324° |
| 2026-05-06 07:00 | 40.42056 | -3.48280 | 3199 ft | 164 kts | 324° |
| 2026-05-06 07:00 | 40.42917 | -3.49150 | 2974 ft | 150 kts | 324° |
| 2026-05-06 07:00 | 40.43731 | -3.49970 | 2797 ft | 146 kts | 324° |
| 2026-05-06 07:00 | 40.44533 | -3.50777 | 2558 ft | 147 kts | 324° |
| 2026-05-06 07:01 | 40.45348 | -3.51562 | 2302 ft | 141 kts | 325° |
| 2026-05-06 07:01 | 40.46122 | -3.52365 | 2186 ft | 145 kts | 322° |
| 2026-05-06 07:01 | 40.46936 | -3.53205 | 2008 ft | 146 kts | 323° |
| 2026-05-06 07:01 | 40.47716 | -3.53977 | 1874 ft | 133 kts | 324° |
| 2026-05-06 07:02 | 40.48291 | -3.54569 | 1881 ft | 70 kts | 323° |
| 2026-05-06 07:02 | 40.48554 | -3.54825 | 1885 ft | 27 kts | 321° |
| 2026-05-06 07:02 | 40.48703 | -3.54997 | 1889 ft | 29 kts | 312° |
| 2026-05-06 07:02 | 40.48795 | -3.55197 | 1893 ft | 24 kts | 291° |
| 2026-05-06 07:03 | 40.48855 | -3.55384 | 1898 ft | 20 kts | 297° |
| 2026-05-06 07:03 | 40.48940 | -3.55511 | 1903 ft | 17 kts | 322° |
| 2026-05-06 07:03 | 40.49030 | -3.55604 | 1906 ft | 15 kts | 322° |
| 2026-05-06 07:03 | 40.49109 | -3.55682 | 1909 ft | 13 kts | 323° |
| 2026-05-06 07:04 | 40.49177 | -3.55749 | 1912 ft | 11 kts | 323° |
| 2026-05-06 07:04 | 40.49234 | -3.55806 | 1914 ft | 9 kts | 323° |
| 2026-05-06 07:04 | 40.49280 | -3.55856 | 1916 ft | 9 kts | 310° |
| 2026-05-06 07:04 | 40.49301 | -3.55955 | 1920 ft | 10 kts | 274° |
| 2026-05-06 07:05 | 40.49301 | -3.56048 | 1924 ft | 11 kts | 270° |
| 2026-05-06 07:05 | 40.49301 | -3.56143 | 1926 ft | 9 kts | 270° |
| 2026-05-06 07:05 | 40.49311 | -3.56214 | 1928 ft | 6 kts | 298° |
| 2026-05-06 07:05 | 40.49330 | -3.56262 | 1929 ft | 4 kts | 287° |
| 2026-05-06 07:06 | 40.49332 | -3.56291 | 1931 ft | 1 kts | 272° |
| 2026-05-06 07:06 | 40.49332 | -3.56334 | 1932 ft | 4 kts | 271° |
| 2026-05-06 07:06 | 40.49332 | -3.56347 | 1933 ft | 0 kts | 270° |
| 2026-05-06 07:06 | 40.49332 | -3.56349 | 1932 ft | 0 kts | 269° |